DAOO/ORN METAR and TAF weather

Enter ICAO airport designator
Station Type Date Time Source
DAOO METAR 2019/06/26 22:00 UTC NOAA

DAOO 262200Z 34006KT 8000 FEW026 23/20 Q1015


Station Type Date Time Source
DAOO Decoded METAR 2019/06/26 22:00 UTC NOAA

Oran / Es Senia, Algeria (DAOO) 35-38N 000-36W 90M
Jun 26, 2019 - 06:00 PM EDT / 2019.06.26 2200 UTC
Wind: from the NNW (340 degrees) at 7 MPH (6 KT):0
Visibility: 4 mile(s):0
Sky conditions: mostly clear
Temperature: 73 F (23 C)
Dew Point: 68 F (20 C)
Relative Humidity: 83%
Pressure (altimeter): 29.97 in. Hg (1015 hPa)
ob: DAOO 262200Z 34006KT 8000 FEW026 23/20 Q1015
cycle: 22

Station Type Date Time Source
DAOO TAF 2019/06/26 18:40 UTC NOAA

TAF DAOO 261700Z 2618/2718 35012KT 9999 FEW026
BECMG 2622/2624 VRB02KT 8000 FEW010 BKN020 PROB40
TEMPO 2702/2708 3000 BR BKN010

Example: see airport list